Kary, South Dakota
Current Conditions -  °F | °C
As of 2:53 AM on Monday 24 Nov 2014 (Local Time) from KPIR Reporting Station
Clear Clear  
Wind Chill:   Ceiling: Unl
Heat Index: 23°   Visibility: 10mi
Dew Point: 16°   Wind: 24mph
Humidity: 74%   Direction: 320°NW
Pressure: 29.69"   Gusts: NA
Location:  43.9557°N, 100.703°W
Report Text: KPIR 240853Z AUTO 32021KT 10SM CLR M05/M09 A2969 RMK AO2 PK WND 32030/0829 SLP070 T10501089 53004
Loading
Personal Weather Stations






























Interactive Weather Map New forecast layout! Learn more

10-Day Weather Forecast

Advertisements
Track Severe Weather on mobile